Погода Лос-Кобаносна неделю

Сонсонате, Сальвадор

03 - 09 марта
  • 03марта
    Сегодня
    +25°
    +33°
    Небольшая облачность и лёгкий дождик
    ВремяПогодаТемператураВлажностьДавлениеВетер, м/сВероятность осадков
    00:00Ясно и безоблачно+27°C74 %759 мм1.8 м/с2 %
    03:00Практически безоблачно+26°C75 %759 мм2.1 м/с2 %
    06:00Небольшая облачность+26°C70 %759 мм0.9 м/с8 %
    09:00Ясно и безоблачно+32°C56 %760 мм2.4 м/с19 %
    12:00Небольшая облачность и лёгкий дождик+31°C69 %760 мм4.7 м/с27 %
    15:00Небольшая облачность и лёгкий дождик+32°C65 %758 мм4.2 м/с19 %
    18:00Ясно и безоблачно+30°C69 %757 мм3.4 м/с6 %
    21:00Ясно и безоблачно+28°C74 %759 мм3.5 м/с3 %
  • 04марта
    Понедельник
    +25°
    +34°
    Практически безоблачно
    ВремяПогодаТемператураВлажностьДавлениеВетер, м/сВероятность осадков
    00:00Ясно и безоблачно+26°C77 %758 мм2.4 м/с2 %
    03:00Практически безоблачно+26°C75 %757 мм1.6 м/с2 %
    06:00Практически безоблачно+26°C72 %758 мм1.1 м/с2 %
    09:00Ясно и безоблачно+32°C53 %759 мм0.4 м/с7 %
    12:00Практически безоблачно+32°C64 %759 мм5.5 м/с11 %
    15:00Практически безоблачно+32°C60 %757 мм4.0 м/с10 %
    18:00Ясно и безоблачно+30°C68 %757 мм2.4 м/с4 %
    21:00Ясно и безоблачно+28°C72 %758 мм1.6 м/с2 %
  • 05марта
    Вторник
    +25°
    +34°
    Ясно и безоблачно
    ВремяПогодаТемператураВлажностьДавлениеВетер, м/сВероятность осадков
    00:00Ясно и безоблачно+26°C75 %758 мм2.0 м/с2 %
    03:00Ясно и безоблачно+25°C76 %757 мм1.5 м/с3 %
    06:00Ясно и безоблачно+25°C79 %757 мм1.1 м/с3 %
    09:00Ясно и безоблачно+31°C62 %759 мм1.4 м/с2 %
    12:00Практически безоблачно+33°C60 %758 мм4.4 м/с3 %
    15:00Ясно и безоблачно+33°C63 %756 мм4.6 м/с7 %
    18:00Ясно и безоблачно+31°C70 %756 мм3.7 м/с4 %
    21:00Ясно и безоблачно+28°C74 %757 мм2.6 м/с2 %
  • 06марта
    Среда
    +25°
    +33°
    Практически безоблачно
    ВремяПогодаТемператураВлажностьДавлениеВетер, м/сВероятность осадков
    00:00Ясно и безоблачно+26°C76 %757 мм1.1 м/с2 %
    03:00Ясно и безоблачно+26°C73 %756 мм1.5 м/с3 %
    06:00Ясно и безоблачно+26°C72 %757 мм1.2 м/с4 %
    09:00Ясно и безоблачно+31°C63 %758 мм0.7 м/с2 %
    12:00Небольшая облачность+33°C62 %757 мм4.4 м/с5 %
    15:00Практически безоблачно+33°C60 %755 мм4.3 м/с17 %
    18:00Ясно и безоблачно+31°C67 %756 мм4.1 м/с8 %
    21:00Ясно и безоблачно+28°C73 %758 мм2.9 м/с3 %
  • 07марта
    Четверг
    +26°
    +33°
    Практически безоблачно
    ВремяПогодаТемператураВлажностьДавлениеВетер, м/сВероятность осадков
    00:00Ясно и безоблачно+27°C73 %757 мм2.5 м/с2 %
    03:00Ясно и безоблачно+26°C72 %756 мм1.6 м/с5 %
    06:00Ясно и безоблачно+26°C72 %757 мм1.7 м/с6 %
    09:00Ясно и безоблачно+30°C62 %759 мм1.0 м/с6 %
    12:00Ясно и безоблачно+32°C64 %758 мм3.9 м/с19 %
    15:00Практически безоблачно+33°C62 %756 мм3.9 м/с24 %
    18:00Ясно и безоблачно+31°C72 %757 мм3.7 м/с19 %
    21:00Ясно и безоблачно+29°C75 %758 мм2.3 м/с9 %
Мы используем cookies
Соглашаюсь